sensor_id;sensor_type;location;lat;lon;timestamp;P1;durP1;ratioP1;P2;durP2;ratioP2
11141;SDS011;5625;50.122;19.864;2023-07-08T00:00:28;4.30;;;3.83;;
11141;SDS011;5625;50.122;19.864;2023-07-08T00:02:56;5.93;;;4.20;;
11141;SDS011;5625;50.122;19.864;2023-07-08T00:05:27;6.40;;;4.10;;
11141;SDS011;5625;50.122;19.864;2023-07-08T00:07:55;5.47;;;4.27;;
11141;SDS011;5625;50.122;19.864;2023-07-08T00:10:26;8.03;;;4.30;;
11141;SDS011;5625;50.122;19.864;2023-07-08T00:12:55;4.90;;;4.20;;
11141;SDS011;5625;50.122;19.864;2023-07-08T00:15:26;5.70;;;4.47;;
11141;SDS011;5625;50.122;19.864;2023-07-08T00:17:56;4.77;;;3.90;;
11141;SDS011;5625;50.122;19.864;2023-07-08T00:20:28;6.20;;;3.73;;
11141;SDS011;5625;50.122;19.864;2023-07-08T00:23:03;4.53;;;4.13;;
11141;SDS011;5625;50.122;19.864;2023-07-08T00:25:31;6.77;;;4.33;;
11141;SDS011;5625;50.122;19.864;2023-07-08T00:28:00;4.83;;;4.10;;
11141;SDS011;5625;50.122;19.864;2023-07-08T00:30:30;4.57;;;4.03;;
11141;SDS011;5625;50.122;19.864;2023-07-08T00:33:00;4.30;;;3.80;;
11141;SDS011;5625;50.122;19.864;2023-07-08T00:35:30;5.17;;;4.00;;
11141;SDS011;5625;50.122;19.864;2023-07-08T00:38:00;4.97;;;3.93;;
11141;SDS011;5625;50.122;19.864;2023-07-08T00:40:29;4.87;;;4.10;;
11141;SDS011;5625;50.122;19.864;2023-07-08T00:42:59;4.23;;;3.83;;
11141;SDS011;5625;50.122;19.864;2023-07-08T00:45:40;4.73;;;3.90;;
11141;SDS011;5625;50.122;19.864;2023-07-08T00:48:28;5.30;;;4.20;;
11141;SDS011;5625;50.122;19.864;2023-07-08T00:51:00;5.00;;;3.97;;
11141;SDS011;5625;50.122;19.864;2023-07-08T00:53:28;4.87;;;4.13;;
11141;SDS011;5625;50.122;19.864;2023-07-08T00:55:59;5.07;;;4.20;;
11141;SDS011;5625;50.122;19.864;2023-07-08T00:58:31;6.30;;;4.27;;
11141;SDS011;5625;50.122;19.864;2023-07-08T01:01:04;5.23;;;4.30;;
11141;SDS011;5625;50.122;19.864;2023-07-08T01:03:35;7.60;;;4.60;;
11141;SDS011;5625;50.122;19.864;2023-07-08T01:06:11;7.33;;;4.20;;
11141;SDS011;5625;50.122;19.864;2023-07-08T01:08:39;6.20;;;4.20;;
11141;SDS011;5625;50.122;19.864;2023-07-08T01:11:07;6.40;;;4.23;;
11141;SDS011;5625;50.122;19.864;2023-07-08T01:13:37;5.27;;;4.20;;
11141;SDS011;5625;50.122;19.864;2023-07-08T01:16:08;6.17;;;4.40;;
11141;SDS011;5625;50.122;19.864;2023-07-08T01:18:37;6.50;;;4.47;;
11141;SDS011;5625;50.122;19.864;2023-07-08T01:23:57;5.20;;;4.40;;
11141;SDS011;5625;50.122;19.864;2023-07-08T01:26:25;7.27;;;4.23;;
11141;SDS011;5625;50.122;19.864;2023-07-08T01:28:54;5.60;;;4.27;;
11141;SDS011;5625;50.122;19.864;2023-07-08T01:31:23;4.33;;;3.93;;
11141;SDS011;5625;50.122;19.864;2023-07-08T01:33:52;7.73;;;4.40;;
11141;SDS011;5625;50.122;19.864;2023-07-08T01:36:20;6.23;;;4.40;;
11141;SDS011;5625;50.122;19.864;2023-07-08T01:38:51;5.33;;;3.90;;
11141;SDS011;5625;50.122;19.864;2023-07-08T01:41:21;5.40;;;3.80;;
11141;SDS011;5625;50.122;19.864;2023-07-08T01:43:49;4.13;;;3.73;;
11141;SDS011;5625;50.122;19.864;2023-07-08T01:46:17;5.90;;;3.90;;
11141;SDS011;5625;50.122;19.864;2023-07-08T01:48:51;6.23;;;4.30;;
11141;SDS011;5625;50.122;19.864;2023-07-08T01:51:24;4.87;;;3.70;;
11141;SDS011;5625;50.122;19.864;2023-07-08T01:53:54;3.97;;;3.57;;
11141;SDS011;5625;50.122;19.864;2023-07-08T01:56:23;4.63;;;3.60;;
11141;SDS011;5625;50.122;19.864;2023-07-08T01:58:51;4.67;;;3.40;;
11141;SDS011;5625;50.122;19.864;2023-07-08T02:01:19;5.40;;;3.73;;
11141;SDS011;5625;50.122;19.864;2023-07-08T02:03:47;4.03;;;3.57;;
11141;SDS011;5625;50.122;19.864;2023-07-08T02:06:15;4.47;;;3.37;;
11141;SDS011;5625;50.122;19.864;2023-07-08T02:08:43;4.67;;;3.47;;
11141;SDS011;5625;50.122;19.864;2023-07-08T02:11:11;5.07;;;3.57;;
11141;SDS011;5625;50.122;19.864;2023-07-08T02:13:41;6.03;;;3.90;;
11141;SDS011;5625;50.122;19.864;2023-07-08T02:16:09;5.37;;;4.07;;
11141;SDS011;5625;50.122;19.864;2023-07-08T02:18:37;4.67;;;3.67;;
11141;SDS011;5625;50.122;19.864;2023-07-08T02:21:05;3.87;;;3.57;;
11141;SDS011;5625;50.122;19.864;2023-07-08T02:23:35;4.80;;;3.90;;
11141;SDS011;5625;50.122;19.864;2023-07-08T02:26:03;6.90;;;4.10;;
11141;SDS011;5625;50.122;19.864;2023-07-08T02:28:31;4.87;;;3.27;;
11141;SDS011;5625;50.122;19.864;2023-07-08T02:31:02;4.50;;;3.67;;
11141;SDS011;5625;50.122;19.864;2023-07-08T02:33:31;5.93;;;3.30;;
11141;SDS011;5625;50.122;19.864;2023-07-08T02:35:59;4.83;;;3.73;;
11141;SDS011;5625;50.122;19.864;2023-07-08T02:38:28;3.70;;;3.40;;
11141;SDS011;5625;50.122;19.864;2023-07-08T02:40:56;5.37;;;3.50;;
11141;SDS011;5625;50.122;19.864;2023-07-08T02:43:25;4.40;;;4.00;;
11141;SDS011;5625;50.122;19.864;2023-07-08T02:45:53;4.50;;;3.77;;
11141;SDS011;5625;50.122;19.864;2023-07-08T02:48:23;4.03;;;3.57;;
11141;SDS011;5625;50.122;19.864;2023-07-08T02:50:51;4.53;;;3.60;;
11141;SDS011;5625;50.122;19.864;2023-07-08T02:53:26;6.33;;;3.80;;
11141;SDS011;5625;50.122;19.864;2023-07-08T02:55:55;5.57;;;3.50;;
11141;SDS011;5625;50.122;19.864;2023-07-08T02:58:23;4.63;;;3.70;;
11141;SDS011;5625;50.122;19.864;2023-07-08T03:00:51;7.67;;;3.77;;
11141;SDS011;5625;50.122;19.864;2023-07-08T03:03:19;7.43;;;4.13;;
11141;SDS011;5625;50.122;19.864;2023-07-08T03:05:56;5.10;;;3.70;;
11141;SDS011;5625;50.122;19.864;2023-07-08T03:08:26;5.80;;;3.50;;
11141;SDS011;5625;50.122;19.864;2023-07-08T03:10:55;8.30;;;3.47;;
11141;SDS011;5625;50.122;19.864;2023-07-08T03:13:24;6.77;;;3.83;;
11141;SDS011;5625;50.122;19.864;2023-07-08T03:15:53;6.23;;;3.40;;
11141;SDS011;5625;50.122;19.864;2023-07-08T03:18:22;3.83;;;3.53;;
11141;SDS011;5625;50.122;19.864;2023-07-08T03:20:52;4.13;;;3.47;;
11141;SDS011;5625;50.122;19.864;2023-07-08T03:23:23;4.87;;;3.70;;
11141;SDS011;5625;50.122;19.864;2023-07-08T03:25:52;4.27;;;3.73;;
11141;SDS011;5625;50.122;19.864;2023-07-08T03:28:20;4.00;;;3.03;;
11141;SDS011;5625;50.122;19.864;2023-07-08T03:30:51;3.27;;;2.97;;
11141;SDS011;5625;50.122;19.864;2023-07-08T03:33:20;3.67;;;3.37;;
11141;SDS011;5625;50.122;19.864;2023-07-08T03:35:48;5.33;;;3.47;;
11141;SDS011;5625;50.122;19.864;2023-07-08T03:38:16;6.97;;;3.90;;
11141;SDS011;5625;50.122;19.864;2023-07-08T03:40:46;3.63;;;3.07;;
11141;SDS011;5625;50.122;19.864;2023-07-08T03:43:14;5.53;;;3.30;;
11141;SDS011;5625;50.122;19.864;2023-07-08T03:45:42;4.63;;;3.73;;
11141;SDS011;5625;50.122;19.864;2023-07-08T03:48:11;5.17;;;3.87;;
11141;SDS011;5625;50.122;19.864;2023-07-08T03:50:39;8.30;;;3.93;;
11141;SDS011;5625;50.122;19.864;2023-07-08T03:53:08;6.13;;;3.40;;
11141;SDS011;5625;50.122;19.864;2023-07-08T03:55:36;5.37;;;3.70;;
11141;SDS011;5625;50.122;19.864;2023-07-08T03:58:06;4.67;;;3.60;;
11141;SDS011;5625;50.122;19.864;2023-07-08T04:00:34;4.83;;;3.00;;
11141;SDS011;5625;50.122;19.864;2023-07-08T04:03:03;5.50;;;3.17;;
11141;SDS011;5625;50.122;19.864;2023-07-08T04:05:31;3.63;;;3.03;;
11141;SDS011;5625;50.122;19.864;2023-07-08T04:07:59;3.97;;;3.30;;
11141;SDS011;5625;50.122;19.864;2023-07-08T04:10:27;3.60;;;2.87;;
11141;SDS011;5625;50.122;19.864;2023-07-08T04:12:55;3.20;;;3.00;;
11141;SDS011;5625;50.122;19.864;2023-07-08T04:15:24;3.83;;;2.80;;
11141;SDS011;5625;50.122;19.864;2023-07-08T04:17:54;3.63;;;2.83;;
11141;SDS011;5625;50.122;19.864;2023-07-08T04:20:23;3.50;;;3.00;;
11141;SDS011;5625;50.122;19.864;2023-07-08T04:22:52;5.97;;;3.13;;
11141;SDS011;5625;50.122;19.864;2023-07-08T04:25:20;4.50;;;3.07;;
11141;SDS011;5625;50.122;19.864;2023-07-08T04:27:54;5.07;;;3.00;;
11141;SDS011;5625;50.122;19.864;2023-07-08T04:30:23;4.70;;;2.83;;
11141;SDS011;5625;50.122;19.864;2023-07-08T04:32:53;3.40;;;2.90;;
11141;SDS011;5625;50.122;19.864;2023-07-08T04:35:22;6.23;;;2.90;;
11141;SDS011;5625;50.122;19.864;2023-07-08T04:37:50;5.47;;;3.27;;
11141;SDS011;5625;50.122;19.864;2023-07-08T04:40:20;7.13;;;3.17;;
11141;SDS011;5625;50.122;19.864;2023-07-08T04:42:49;3.80;;;3.07;;
11141;SDS011;5625;50.122;19.864;2023-07-08T04:45:18;3.33;;;3.00;;
11141;SDS011;5625;50.122;19.864;2023-07-08T04:47:48;4.70;;;3.10;;
11141;SDS011;5625;50.122;19.864;2023-07-08T04:50:19;6.03;;;3.27;;
11141;SDS011;5625;50.122;19.864;2023-07-08T04:52:47;3.73;;;3.00;;
11141;SDS011;5625;50.122;19.864;2023-07-08T04:55:16;3.97;;;3.20;;
11141;SDS011;5625;50.122;19.864;2023-07-08T04:57:46;4.67;;;3.20;;
11141;SDS011;5625;50.122;19.864;2023-07-08T05:00:14;5.90;;;3.50;;
11141;SDS011;5625;50.122;19.864;2023-07-08T05:02:45;6.97;;;3.27;;
11141;SDS011;5625;50.122;19.864;2023-07-08T05:05:18;4.83;;;2.93;;
11141;SDS011;5625;50.122;19.864;2023-07-08T05:07:46;3.87;;;3.03;;
11141;SDS011;5625;50.122;19.864;2023-07-08T05:10:15;3.23;;;2.97;;
11141;SDS011;5625;50.122;19.864;2023-07-08T05:12:46;4.17;;;3.10;;
11141;SDS011;5625;50.122;19.864;2023-07-08T05:15:15;4.37;;;2.90;;
11141;SDS011;5625;50.122;19.864;2023-07-08T05:17:46;6.60;;;3.37;;
11141;SDS011;5625;50.122;19.864;2023-07-08T05:20:18;4.70;;;3.00;;
11141;SDS011;5625;50.122;19.864;2023-07-08T05:22:46;2.97;;;2.70;;
11141;SDS011;5625;50.122;19.864;2023-07-08T05:25:14;4.20;;;2.60;;
11141;SDS011;5625;50.122;19.864;2023-07-08T05:27:43;4.40;;;2.70;;
11141;SDS011;5625;50.122;19.864;2023-07-08T05:30:11;4.53;;;2.90;;
11141;SDS011;5625;50.122;19.864;2023-07-08T05:32:42;3.57;;;2.67;;
11141;SDS011;5625;50.122;19.864;2023-07-08T05:35:12;3.83;;;2.70;;
11141;SDS011;5625;50.122;19.864;2023-07-08T05:37:42;3.03;;;2.60;;
11141;SDS011;5625;50.122;19.864;2023-07-08T05:40:13;2.73;;;2.53;;
11141;SDS011;5625;50.122;19.864;2023-07-08T05:42:45;4.20;;;2.70;;
11141;SDS011;5625;50.122;19.864;2023-07-08T05:45:13;3.43;;;3.00;;
11141;SDS011;5625;50.122;19.864;2023-07-08T05:47:41;3.73;;;2.73;;
11141;SDS011;5625;50.122;19.864;2023-07-08T05:50:09;3.77;;;2.77;;
11141;SDS011;5625;50.122;19.864;2023-07-08T05:52:39;5.60;;;2.80;;
11141;SDS011;5625;50.122;19.864;2023-07-08T05:55:07;7.57;;;3.20;;
11141;SDS011;5625;50.122;19.864;2023-07-08T05:57:36;3.47;;;2.63;;
11141;SDS011;5625;50.122;19.864;2023-07-08T06:00:04;3.70;;;2.20;;
11141;SDS011;5625;50.122;19.864;2023-07-08T06:02:33;4.13;;;2.23;;
11141;SDS011;5625;50.122;19.864;2023-07-08T06:05:02;5.87;;;2.43;;
11141;SDS011;5625;50.122;19.864;2023-07-08T06:07:30;3.87;;;2.23;;
11141;SDS011;5625;50.122;19.864;2023-07-08T06:10:00;2.67;;;2.37;;
11141;SDS011;5625;50.122;19.864;2023-07-08T06:12:29;3.73;;;2.40;;
11141;SDS011;5625;50.122;19.864;2023-07-08T06:15:00;5.07;;;2.30;;
11141;SDS011;5625;50.122;19.864;2023-07-08T06:17:28;6.20;;;2.30;;
11141;SDS011;5625;50.122;19.864;2023-07-08T06:19:56;2.37;;;2.17;;
11141;SDS011;5625;50.122;19.864;2023-07-08T06:22:24;2.70;;;2.47;;
11141;SDS011;5625;50.122;19.864;2023-07-08T06:25:13;7.00;;;2.97;;
11141;SDS011;5625;50.122;19.864;2023-07-08T06:27:41;4.30;;;2.50;;
11141;SDS011;5625;50.122;19.864;2023-07-08T06:30:09;2.50;;;2.07;;
11141;SDS011;5625;50.122;19.864;2023-07-08T06:32:37;4.23;;;2.20;;
11141;SDS011;5625;50.122;19.864;2023-07-08T06:35:06;2.63;;;1.90;;
11141;SDS011;5625;50.122;19.864;2023-07-08T06:37:35;7.20;;;2.45;;
11141;SDS011;5625;50.122;19.864;2023-07-08T06:40:03;3.72;;;1.90;;
11141;SDS011;5625;50.122;19.864;2023-07-08T06:42:33;4.05;;;2.17;;
11141;SDS011;5625;50.122;19.864;2023-07-08T06:45:01;2.92;;;2.17;;
11141;SDS011;5625;50.122;19.864;2023-07-08T06:47:29;2.88;;;2.17;;
11141;SDS011;5625;50.122;19.864;2023-07-08T06:49:57;3.53;;;2.28;;
11141;SDS011;5625;50.122;19.864;2023-07-08T06:52:25;2.50;;;2.13;;
11141;SDS011;5625;50.122;19.864;2023-07-08T06:54:53;2.42;;;1.80;;
11141;SDS011;5625;50.122;19.864;2023-07-08T06:57:21;2.67;;;2.00;;
11141;SDS011;5625;50.122;19.864;2023-07-08T06:59:51;3.53;;;2.28;;
11141;SDS011;5625;50.122;19.864;2023-07-08T07:02:19;4.85;;;2.20;;
11141;SDS011;5625;50.122;19.864;2023-07-08T07:04:47;2.17;;;1.98;;
11141;SDS011;5625;50.122;19.864;2023-07-08T07:07:15;3.55;;;1.90;;
11141;SDS011;5625;50.122;19.864;2023-07-08T07:09:43;2.95;;;2.30;;
11141;SDS011;5625;50.122;19.864;2023-07-08T07:12:11;2.47;;;2.00;;
11141;SDS011;5625;50.122;19.864;2023-07-08T07:14:39;3.25;;;2.20;;
11141;SDS011;5625;50.122;19.864;2023-07-08T07:17:12;3.33;;;2.00;;
11141;SDS011;5625;50.122;19.864;2023-07-08T07:19:40;3.70;;;2.20;;
11141;SDS011;5625;50.122;19.864;2023-07-08T07:22:08;3.55;;;1.83;;
11141;SDS011;5625;50.122;19.864;2023-07-08T07:24:36;3.90;;;1.88;;
11141;SDS011;5625;50.122;19.864;2023-07-08T07:27:04;5.05;;;2.03;;
11141;SDS011;5625;50.122;19.864;2023-07-08T07:29:38;1.85;;;1.75;;
11141;SDS011;5625;50.122;19.864;2023-07-08T07:32:08;2.33;;;1.88;;
11141;SDS011;5625;50.122;19.864;2023-07-08T07:34:38;1.95;;;1.67;;
11141;SDS011;5625;50.122;19.864;2023-07-08T07:37:07;1.95;;;1.77;;
11141;SDS011;5625;50.122;19.864;2023-07-08T07:39:39;1.80;;;1.70;;
11141;SDS011;5625;50.122;19.864;2023-07-08T07:42:08;4.25;;;1.80;;
11141;SDS011;5625;50.122;19.864;2023-07-08T07:44:36;4.13;;;1.90;;
11141;SDS011;5625;50.122;19.864;2023-07-08T07:47:06;3.00;;;2.05;;
11141;SDS011;5625;50.122;19.864;2023-07-08T07:49:34;2.97;;;2.00;;
11141;SDS011;5625;50.122;19.864;2023-07-08T07:52:05;1.98;;;1.77;;
11141;SDS011;5625;50.122;19.864;2023-07-08T07:54:34;3.65;;;1.95;;
11141;SDS011;5625;50.122;19.864;2023-07-08T07:57:02;4.22;;;1.80;;
11141;SDS011;5625;50.122;19.864;2023-07-08T07:59:30;3.75;;;1.90;;
11141;SDS011;5625;50.122;19.864;2023-07-08T08:01:58;2.13;;;1.80;;
11141;SDS011;5625;50.122;19.864;2023-07-08T08:04:26;6.65;;;2.85;;
11141;SDS011;5625;50.122;19.864;2023-07-08T08:06:54;4.68;;;2.15;;
11141;SDS011;5625;50.122;19.864;2023-07-08T08:09:24;3.85;;;2.13;;
11141;SDS011;5625;50.122;19.864;2023-07-08T08:11:52;5.05;;;1.60;;
11141;SDS011;5625;50.122;19.864;2023-07-08T08:14:20;1.85;;;1.48;;
11141;SDS011;5625;50.122;19.864;2023-07-08T08:16:49;2.08;;;1.30;;
11141;SDS011;5625;50.122;19.864;2023-07-08T08:19:17;1.67;;;1.58;;
11141;SDS011;5625;50.122;19.864;2023-07-08T08:21:45;3.00;;;1.10;;
11141;SDS011;5625;50.122;19.864;2023-07-08T08:24:13;1.58;;;1.23;;
11141;SDS011;5625;50.122;19.864;2023-07-08T08:26:43;3.13;;;1.30;;
11141;SDS011;5625;50.122;19.864;2023-07-08T08:29:11;1.65;;;1.25;;
11141;SDS011;5625;50.122;19.864;2023-07-08T08:31:39;1.45;;;1.20;;
11141;SDS011;5625;50.122;19.864;2023-07-08T08:34:07;1.13;;;1.08;;
11141;SDS011;5625;50.122;19.864;2023-07-08T08:36:35;2.95;;;1.35;;
11141;SDS011;5625;50.122;19.864;2023-07-08T08:39:05;4.93;;;1.50;;
11141;SDS011;5625;50.122;19.864;2023-07-08T08:41:34;1.83;;;1.67;;
11141;SDS011;5625;50.122;19.864;2023-07-08T08:44:08;2.90;;;1.48;;
11141;SDS011;5625;50.122;19.864;2023-07-08T08:46:42;2.33;;;1.30;;
11141;SDS011;5625;50.122;19.864;2023-07-08T08:49:22;1.35;;;1.25;;
11141;SDS011;5625;50.122;19.864;2023-07-08T08:51:59;3.33;;;1.38;;
11141;SDS011;5625;50.122;19.864;2023-07-08T08:54:28;1.73;;;1.30;;
11141;SDS011;5625;50.122;19.864;2023-07-08T08:56:59;1.25;;;1.10;;
11141;SDS011;5625;50.122;19.864;2023-07-08T08:59:38;1.67;;;1.20;;
11141;SDS011;5625;50.122;19.864;2023-07-08T09:02:18;4.20;;;1.15;;
11141;SDS011;5625;50.122;19.864;2023-07-08T09:04:55;3.42;;;1.20;;
11141;SDS011;5625;50.122;19.864;2023-07-08T09:07:25;1.25;;;1.15;;
11141;SDS011;5625;50.122;19.864;2023-07-08T09:09:58;4.30;;;1.33;;
11141;SDS011;5625;50.122;19.864;2023-07-08T09:12:32;2.38;;;1.30;;
11141;SDS011;5625;50.122;19.864;2023-07-08T09:15:07;4.63;;;1.50;;
11141;SDS011;5625;50.122;19.864;2023-07-08T09:17:39;1.83;;;1.20;;
11141;SDS011;5625;50.122;19.864;2023-07-08T09:20:12;1.48;;;1.25;;
11141;SDS011;5625;50.122;19.864;2023-07-08T09:22:50;1.65;;;1.38;;
11141;SDS011;5625;50.122;19.864;2023-07-08T09:25:26;1.05;;;1.05;;
11141;SDS011;5625;50.122;19.864;2023-07-08T09:27:58;3.78;;;1.33;;
11141;SDS011;5625;50.122;19.864;2023-07-08T09:30:27;3.47;;;1.50;;
11141;SDS011;5625;50.122;19.864;2023-07-08T09:32:56;3.20;;;1.88;;
11141;SDS011;5625;50.122;19.864;2023-07-08T09:35:38;2.25;;;1.10;;
11141;SDS011;5625;50.122;19.864;2023-07-08T09:38:08;1.38;;;1.20;;
11141;SDS011;5625;50.122;19.864;2023-07-08T09:40:44;1.88;;;1.35;;
11141;SDS011;5625;50.122;19.864;2023-07-08T09:43:18;1.25;;;1.15;;
11141;SDS011;5625;50.122;19.864;2023-07-08T09:45:55;1.38;;;1.27;;
11141;SDS011;5625;50.122;19.864;2023-07-08T09:48:26;2.13;;;1.23;;
11141;SDS011;5625;50.122;19.864;2023-07-08T09:50:56;2.35;;;1.30;;
11141;SDS011;5625;50.122;19.864;2023-07-08T09:53:26;1.88;;;1.55;;
11141;SDS011;5625;50.122;19.864;2023-07-08T09:55:56;2.70;;;1.23;;
11141;SDS011;5625;50.122;19.864;2023-07-08T09:58:27;2.65;;;1.30;;
11141;SDS011;5625;50.122;19.864;2023-07-08T10:01:02;1.50;;;1.33;;
11141;SDS011;5625;50.122;19.864;2023-07-08T10:03:38;1.30;;;1.20;;
11141;SDS011;5625;50.122;19.864;2023-07-08T10:06:17;1.38;;;1.27;;
11141;SDS011;5625;50.122;19.864;2023-07-08T10:08:49;1.50;;;1.10;;
11141;SDS011;5625;50.122;19.864;2023-07-08T10:11:25;2.15;;;1.65;;
11141;SDS011;5625;50.122;19.864;2023-07-08T10:13:56;1.73;;;1.30;;
11141;SDS011;5625;50.122;19.864;2023-07-08T10:16:41;1.55;;;1.10;;
11141;SDS011;5625;50.122;19.864;2023-07-08T10:19:11;2.97;;;1.17;;
11141;SDS011;5625;50.122;19.864;2023-07-08T10:21:43;3.70;;;1.15;;
11141;SDS011;5625;50.122;19.864;2023-07-08T10:24:21;1.38;;;1.27;;
11141;SDS011;5625;50.122;19.864;2023-07-08T10:26:58;2.33;;;1.17;;
11141;SDS011;5625;50.122;19.864;2023-07-08T10:29:34;2.13;;;1.20;;
11141;SDS011;5625;50.122;19.864;2023-07-08T10:32:13;1.20;;;1.10;;
11141;SDS011;5625;50.122;19.864;2023-07-08T10:34:53;1.90;;;1.15;;
11141;SDS011;5625;50.122;19.864;2023-07-08T10:37:30;1.13;;;1.00;;
11141;SDS011;5625;50.122;19.864;2023-07-08T10:40:11;1.30;;;1.20;;
11141;SDS011;5625;50.122;19.864;2023-07-08T10:42:51;1.35;;;1.25;;
11141;SDS011;5625;50.122;19.864;2023-07-08T10:45:44;1.58;;;1.13;;
11141;SDS011;5625;50.122;19.864;2023-07-08T10:48:23;2.00;;;1.10;;
11141;SDS011;5625;50.122;19.864;2023-07-08T10:51:10;2.88;;;1.20;;
11141;SDS011;5625;50.122;19.864;2023-07-08T10:53:51;2.75;;;1.25;;
11141;SDS011;5625;50.122;19.864;2023-07-08T10:56:34;2.53;;;1.15;;
11141;SDS011;5625;50.122;19.864;2023-07-08T10:59:09;1.30;;;1.20;;
11141;SDS011;5625;50.122;19.864;2023-07-08T11:02:07;3.28;;;1.20;;
11141;SDS011;5625;50.122;19.864;2023-07-08T11:04:55;2.53;;;1.30;;
11141;SDS011;5625;50.122;19.864;2023-07-08T11:07:34;1.67;;;1.40;;
11141;SDS011;5625;50.122;19.864;2023-07-08T11:10:10;1.50;;;1.38;;
11141;SDS011;5625;50.122;19.864;2023-07-08T11:12:44;2.38;;;1.33;;
11141;SDS011;5625;50.122;19.864;2023-07-08T11:15:18;1.38;;;1.27;;
11141;SDS011;5625;50.122;19.864;2023-07-08T11:17:52;4.63;;;1.30;;
11141;SDS011;5625;50.122;19.864;2023-07-08T11:20:30;1.58;;;1.35;;
11141;SDS011;5625;50.122;19.864;2023-07-08T11:23:03;1.50;;;1.00;;
11141;SDS011;5625;50.122;19.864;2023-07-08T11:25:44;1.73;;;1.40;;
11141;SDS011;5625;50.122;19.864;2023-07-08T11:28:18;1.30;;;1.20;;
11141;SDS011;5625;50.122;19.864;2023-07-08T11:30:50;3.22;;;1.50;;
11141;SDS011;5625;50.122;19.864;2023-07-08T11:33:21;1.13;;;1.08;;
11141;SDS011;5625;50.122;19.864;2023-07-08T11:35:54;1.73;;;1.00;;
11141;SDS011;5625;50.122;19.864;2023-07-08T11:38:25;1.40;;;1.30;;
11141;SDS011;5625;50.122;19.864;2023-07-08T11:40:54;1.20;;;1.15;;
11141;SDS011;5625;50.122;19.864;2023-07-08T11:43:25;2.67;;;1.20;;
11141;SDS011;5625;50.122;19.864;2023-07-08T11:45:55;1.50;;;1.40;;
11141;SDS011;5625;50.122;19.864;2023-07-08T11:48:25;2.25;;;1.08;;
11141;SDS011;5625;50.122;19.864;2023-07-08T11:50:57;1.30;;;1.20;;
11141;SDS011;5625;50.122;19.864;2023-07-08T11:53:32;2.72;;;1.23;;
11141;SDS011;5625;50.122;19.864;2023-07-08T11:56:04;2.22;;;1.17;;
11141;SDS011;5625;50.122;19.864;2023-07-08T11:58:58;1.65;;;1.00;;
11141;SDS011;5625;50.122;19.864;2023-07-08T12:01:37;1.77;;;1.20;;
11141;SDS011;5625;50.122;19.864;2023-07-08T12:04:17;1.50;;;1.40;;
11141;SDS011;5625;50.122;19.864;2023-07-08T12:07:02;1.92;;;1.10;;
11141;SDS011;5625;50.122;19.864;2023-07-08T12:09:44;3.15;;;1.30;;
11141;SDS011;5625;50.122;19.864;2023-07-08T12:12:17;2.47;;;1.20;;
11141;SDS011;5625;50.122;19.864;2023-07-08T12:14:50;2.63;;;1.20;;
11141;SDS011;5625;50.122;19.864;2023-07-08T12:17:21;1.85;;;1.20;;
11141;SDS011;5625;50.122;19.864;2023-07-08T12:19:49;1.27;;;1.13;;
11141;SDS011;5625;50.122;19.864;2023-07-08T12:22:20;2.92;;;1.40;;
11141;SDS011;5625;50.122;19.864;2023-07-08T12:24:48;1.17;;;1.08;;
11141;SDS011;5625;50.122;19.864;2023-07-08T12:27:16;1.63;;;1.10;;
11141;SDS011;5625;50.122;19.864;2023-07-08T12:29:45;2.28;;;1.30;;
11141;SDS011;5625;50.122;19.864;2023-07-08T12:32:13;2.25;;;1.10;;
11141;SDS011;5625;50.122;19.864;2023-07-08T12:34:41;1.75;;;1.05;;
11141;SDS011;5625;50.122;19.864;2023-07-08T12:37:11;2.55;;;1.20;;
11141;SDS011;5625;50.122;19.864;2023-07-08T12:39:41;2.13;;;1.40;;
11141;SDS011;5625;50.122;19.864;2023-07-08T12:42:10;2.70;;;1.10;;
11141;SDS011;5625;50.122;19.864;2023-07-08T12:44:38;3.00;;;1.17;;
11141;SDS011;5625;50.122;19.864;2023-07-08T12:47:10;1.15;;;0.90;;
11141;SDS011;5625;50.122;19.864;2023-07-08T12:49:38;1.27;;;1.17;;
11141;SDS011;5625;50.122;19.864;2023-07-08T12:52:17;1.30;;;1.20;;
11141;SDS011;5625;50.122;19.864;2023-07-08T12:54:49;1.33;;;1.17;;
11141;SDS011;5625;50.122;19.864;2023-07-08T12:57:18;4.63;;;1.48;;
11141;SDS011;5625;50.122;19.864;2023-07-08T12:59:46;4.25;;;1.20;;
11141;SDS011;5625;50.122;19.864;2023-07-08T13:02:15;2.75;;;1.20;;
11141;SDS011;5625;50.122;19.864;2023-07-08T13:04:49;2.63;;;1.10;;
11141;SDS011;5625;50.122;19.864;2023-07-08T13:07:31;1.65;;;1.33;;
11141;SDS011;5625;50.122;19.864;2023-07-08T13:10:05;1.77;;;1.30;;
11141;SDS011;5625;50.122;19.864;2023-07-08T13:12:35;2.63;;;1.15;;
11141;SDS011;5625;50.122;19.864;2023-07-08T13:15:08;1.60;;;1.00;;
11141;SDS011;5625;50.122;19.864;2023-07-08T13:17:44;2.15;;;1.33;;
11141;SDS011;5625;50.122;19.864;2023-07-08T13:20:13;1.48;;;1.20;;
11141;SDS011;5625;50.122;19.864;2023-07-08T13:22:46;1.92;;;1.35;;
11141;SDS011;5625;50.122;19.864;2023-07-08T13:25:20;1.60;;;1.17;;
11141;SDS011;5625;50.122;19.864;2023-07-08T13:27:55;1.25;;;1.15;;
11141;SDS011;5625;50.122;19.864;2023-07-08T13:30:27;2.53;;;1.40;;
11141;SDS011;5625;50.122;19.864;2023-07-08T13:32:58;2.22;;;1.40;;
11141;SDS011;5625;50.122;19.864;2023-07-08T13:35:27;2.20;;;1.40;;
11141;SDS011;5625;50.122;19.864;2023-07-08T13:38:04;1.50;;;1.08;;
11141;SDS011;5625;50.122;19.864;2023-07-08T13:40:33;1.38;;;1.27;;
11141;SDS011;5625;50.122;19.864;2023-07-08T13:43:05;2.05;;;1.20;;
11141;SDS011;5625;50.122;19.864;2023-07-08T13:45:33;1.13;;;1.13;;
11141;SDS011;5625;50.122;19.864;2023-07-08T13:48:10;1.42;;;1.20;;
11141;SDS011;5625;50.122;19.864;2023-07-08T13:50:43;1.35;;;1.25;;
11141;SDS011;5625;50.122;19.864;2023-07-08T13:53:18;2.47;;;1.13;;
11141;SDS011;5625;50.122;19.864;2023-07-08T13:55:55;2.13;;;1.40;;
11141;SDS011;5625;50.122;19.864;2023-07-08T13:58:28;2.42;;;1.30;;
11141;SDS011;5625;50.122;19.864;2023-07-08T14:00:57;1.38;;;1.27;;
11141;SDS011;5625;50.122;19.864;2023-07-08T14:03:26;2.60;;;1.40;;
11141;SDS011;5625;50.122;19.864;2023-07-08T14:05:54;1.20;;;1.10;;
11141;SDS011;5625;50.122;19.864;2023-07-08T14:08:25;1.30;;;1.20;;
11141;SDS011;5625;50.122;19.864;2023-07-08T14:10:55;1.30;;;1.20;;
11141;SDS011;5625;50.122;19.864;2023-07-08T14:13:23;1.27;;;1.23;;
11141;SDS011;5625;50.122;19.864;2023-07-08T14:15:54;1.33;;;1.23;;
11141;SDS011;5625;50.122;19.864;2023-07-08T14:18:22;1.50;;;1.40;;
11141;SDS011;5625;50.122;19.864;2023-07-08T14:20:50;3.13;;;1.40;;
11141;SDS011;5625;50.122;19.864;2023-07-08T14:23:20;3.55;;;1.42;;
11141;SDS011;5625;50.122;19.864;2023-07-08T14:25:48;1.17;;;1.10;;
11141;SDS011;5625;50.122;19.864;2023-07-08T14:28:17;3.05;;;1.50;;
11141;SDS011;5625;50.122;19.864;2023-07-08T14:30:46;1.48;;;1.38;;
11141;SDS011;5625;50.122;19.864;2023-07-08T14:33:18;2.17;;;1.50;;
11141;SDS011;5625;50.122;19.864;2023-07-08T14:35:46;1.38;;;1.27;;
11141;SDS011;5625;50.122;19.864;2023-07-08T14:38:14;1.40;;;1.30;;
11141;SDS011;5625;50.122;19.864;2023-07-08T14:40:43;2.38;;;1.35;;
11141;SDS011;5625;50.122;19.864;2023-07-08T14:43:13;1.67;;;1.38;;
11141;SDS011;5625;50.122;19.864;2023-07-08T14:45:46;2.42;;;1.58;;
11141;SDS011;5625;50.122;19.864;2023-07-08T14:48:17;1.55;;;1.45;;
11141;SDS011;5625;50.122;19.864;2023-07-08T14:50:45;1.73;;;1.42;;
11141;SDS011;5625;50.122;19.864;2023-07-08T14:53:13;1.60;;;1.50;;
11141;SDS011;5625;50.122;19.864;2023-07-08T14:55:42;2.42;;;1.45;;
11141;SDS011;5625;50.122;19.864;2023-07-08T14:58:23;1.50;;;1.40;;
11141;SDS011;5625;50.122;19.864;2023-07-08T15:00:54;1.92;;;1.40;;
11141;SDS011;5625;50.122;19.864;2023-07-08T15:03:24;1.55;;;1.40;;
11141;SDS011;5625;50.122;19.864;2023-07-08T15:05:52;1.63;;;1.52;;
11141;SDS011;5625;50.122;19.864;2023-07-08T15:08:22;2.97;;;1.52;;
11141;SDS011;5625;50.122;19.864;2023-07-08T15:10:50;1.60;;;1.50;;
11141;SDS011;5625;50.122;19.864;2023-07-08T15:13:20;2.13;;;1.70;;